createdAt,value
2018-05-04T00:00:17.049Z,10.83
2018-05-04T00:01:17.069Z,10.90
2018-05-04T00:02:17.095Z,10.87
2018-05-04T00:03:17.116Z,10.73
2018-05-04T00:04:17.139Z,10.52
2018-05-04T00:05:17.158Z,10.63
2018-05-04T00:06:17.183Z,10.47
2018-05-04T00:07:17.204Z,10.49
2018-05-04T00:08:17.229Z,10.32
2018-05-04T00:09:17.253Z,10.29
2018-05-04T00:10:17.272Z,10.26
2018-05-04T00:11:17.298Z,10.25
2018-05-04T00:12:17.323Z,10.20
2018-05-04T00:13:17.338Z,10.16
2018-05-04T00:14:17.363Z,10.32
2018-05-04T00:15:17.384Z,10.52
2018-05-04T00:16:17.416Z,10.43
2018-05-04T00:17:17.434Z,10.52
2018-05-04T00:18:17.459Z,10.39
2018-05-04T00:19:17.475Z,10.42
2018-05-04T00:20:17.525Z,10.28
2018-05-04T00:21:17.519Z,10.31
2018-05-04T00:22:17.545Z,10.34
2018-05-04T00:23:17.561Z,10.17
2018-05-04T00:24:17.582Z,10.20
2018-05-04T00:25:17.607Z,10.14
2018-05-04T00:26:17.628Z,10.20
2018-05-04T00:27:17.652Z,10.11
2018-05-04T00:28:17.672Z,10.14
2018-05-04T00:29:17.697Z,10.14
2018-05-04T00:30:17.717Z,9.99
2018-05-04T00:31:17.740Z,10.09
2018-05-04T00:32:17.763Z,10.11
2018-05-04T00:33:17.782Z,10.14
2018-05-04T00:34:17.806Z,10.04
2018-05-04T00:35:17.827Z,10.11
2018-05-04T00:36:17.854Z,9.93
2018-05-04T00:37:17.876Z,9.85
2018-05-04T00:38:17.893Z,9.95
2018-05-04T00:39:17.917Z,9.75
2018-05-04T00:40:17.941Z,9.78
2018-05-04T00:41:17.955Z,9.73
2018-05-04T00:42:17.981Z,9.74
2018-05-04T00:43:18.001Z,9.70
2018-05-04T00:44:18.031Z,9.71
2018-05-04T00:45:18.049Z,9.77
2018-05-04T00:46:18.067Z,9.78
2018-05-04T00:47:18.091Z,9.67
2018-05-04T00:48:18.112Z,9.74
2018-05-04T00:49:18.136Z,9.80
2018-05-04T00:50:18.157Z,9.73
2018-05-04T00:51:18.176Z,9.81
2018-05-04T00:52:18.197Z,9.77
2018-05-04T00:53:18.220Z,9.75
2018-05-04T00:54:18.245Z,9.60
2018-05-04T00:55:18.265Z,9.50
2018-05-04T00:56:18.286Z,9.49
2018-05-04T00:57:18.306Z,9.59
2018-05-04T00:58:18.333Z,9.56
2018-05-04T00:59:18.353Z,9.59
2018-05-04T01:00:18.371Z,9.62
2018-05-04T01:01:18.395Z,9.78
2018-05-04T01:02:18.418Z,9.75
2018-05-04T01:03:18.434Z,9.83
2018-05-04T01:04:18.462Z,9.99
2018-05-04T01:05:18.485Z,9.98
2018-05-04T01:06:18.526Z,10.02
2018-05-04T01:07:18.526Z,10.02
2018-05-04T01:08:18.548Z,10.16
2018-05-04T01:09:18.565Z,10.04
2018-05-04T01:10:18.591Z,9.99
2018-05-04T01:11:18.617Z,10.02
2018-05-04T01:12:18.628Z,10.06
2018-05-04T01:13:18.656Z,10.01
2018-05-04T01:14:18.675Z,9.99
2018-05-04T01:15:18.695Z,9.99
2018-05-04T01:16:18.721Z,9.85
2018-05-04T01:17:18.745Z,9.74
2018-05-04T01:18:18.764Z,9.71
2018-05-04T01:19:18.780Z,9.63
2018-05-04T01:20:18.807Z,9.55
2018-05-04T01:21:18.829Z,9.42
2018-05-04T01:22:18.846Z,9.34
2018-05-04T01:23:18.883Z,9.30
2018-05-04T01:24:18.890Z,9.32
2018-05-04T01:25:18.914Z,9.45
2018-05-04T01:26:18.935Z,9.49
2018-05-04T01:27:18.958Z,9.52
2018-05-04T01:28:18.978Z,9.56
2018-05-04T01:29:19.003Z,9.62
2018-05-04T01:30:19.022Z,9.86
2018-05-04T01:31:19.039Z,9.81
2018-05-04T01:32:19.059Z,9.77
2018-05-04T01:33:19.090Z,9.81
2018-05-04T01:34:19.104Z,9.93
2018-05-04T01:35:19.127Z,9.88
2018-05-04T01:36:19.152Z,9.78
2018-05-04T01:37:19.168Z,9.92
2018-05-04T01:38:19.193Z,9.95
2018-05-04T01:39:19.214Z,9.93
2018-05-04T01:40:19.233Z,9.95
2018-05-04T01:41:19.257Z,9.92
2018-05-04T01:42:19.275Z,9.83
2018-05-04T01:43:19.298Z,9.78
2018-05-04T01:44:19.320Z,9.68
2018-05-04T01:45:19.338Z,9.62
2018-05-04T01:46:19.368Z,9.41
2018-05-04T01:47:19.385Z,9.41
2018-05-04T01:48:19.417Z,9.37
2018-05-04T01:49:19.426Z,9.31
2018-05-04T01:50:19.453Z,9.12
2018-05-04T01:51:19.471Z,9.04
2018-05-04T01:52:19.523Z,9.03
2018-05-04T01:53:19.512Z,9.15
2018-05-04T01:54:19.536Z,9.24
2018-05-04T01:55:19.554Z,9.24
2018-05-04T01:56:19.573Z,9.32
2018-05-04T01:57:19.603Z,9.35
2018-05-04T01:58:19.618Z,9.34
2018-05-04T01:59:19.647Z,9.26
2018-05-04T02:00:19.663Z,9.26
2018-05-04T02:01:19.683Z,9.20
2018-05-04T02:02:19.706Z,9.17
2018-05-04T02:03:19.731Z,9.10
2018-05-04T02:04:19.751Z,9.16
2018-05-04T02:05:19.770Z,9.06
2018-05-04T02:06:19.796Z,9.17
2018-05-04T02:07:19.806Z,9.06
2018-05-04T02:08:19.832Z,9.22
2018-05-04T02:09:19.854Z,9.31
2018-05-04T02:10:19.877Z,9.42
2018-05-04T02:11:19.901Z,9.48
2018-05-04T02:12:19.918Z,9.42
2018-05-04T02:13:19.942Z,9.38
2018-05-04T02:14:19.959Z,9.42
2018-05-04T02:15:19.983Z,9.40
2018-05-04T02:16:20.002Z,9.27
2018-05-04T02:17:20.026Z,9.26
2018-05-04T02:18:20.047Z,9.24
2018-05-04T02:19:20.068Z,9.08
2018-05-04T02:20:20.092Z,9.04
2018-05-04T02:21:20.117Z,8.93
2018-05-04T02:22:20.134Z,8.93
2018-05-04T02:23:20.151Z,8.80
2018-05-04T02:24:20.172Z,8.79
2018-05-04T02:25:20.270Z,8.80
2018-05-04T02:26:20.217Z,8.75
2018-05-04T02:27:20.236Z,8.79
2018-05-04T02:28:20.261Z,8.94
2018-05-04T02:29:20.285Z,8.93
2018-05-04T02:30:20.301Z,8.91
2018-05-04T02:31:20.322Z,9.04
2018-05-04T02:32:20.345Z,9.17
2018-05-04T02:33:20.362Z,9.19
2018-05-04T02:34:20.386Z,9.26
2018-05-04T02:35:20.410Z,9.20
2018-05-04T02:36:20.429Z,9.22
2018-05-04T02:37:20.451Z,9.16
2018-05-04T02:38:20.480Z,9.13
2018-05-04T02:39:20.491Z,9.23
2018-05-04T02:40:20.513Z,9.23
2018-05-04T02:41:20.530Z,9.34
2018-05-04T02:42:20.555Z,9.32
2018-05-04T02:43:20.580Z,9.40
2018-05-04T02:44:20.600Z,9.40
2018-05-04T02:45:20.616Z,9.40
2018-05-04T02:46:20.650Z,9.34
2018-05-04T02:47:20.665Z,9.26
2018-05-04T02:48:20.687Z,9.15
2018-05-04T02:49:20.713Z,9.13
2018-05-04T02:50:20.727Z,9.15
2018-05-04T02:51:20.745Z,9.06
2018-05-04T02:52:20.768Z,9.06
2018-05-04T02:53:20.788Z,9.16
2018-05-04T02:54:20.817Z,9.16
2018-05-04T02:55:20.892Z,9.17
2018-05-04T02:56:20.850Z,9.16
2018-05-04T02:57:20.870Z,9.16
2018-05-04T02:58:20.895Z,9.24
2018-05-04T02:59:20.919Z,9.20
2018-05-04T03:00:20.946Z,9.23
2018-05-04T03:01:20.955Z,9.22
2018-05-04T03:02:20.979Z,9.01
2018-05-04T03:03:20.999Z,8.97
2018-05-04T03:04:21.020Z,9.08
2018-05-04T03:05:21.039Z,9.04
2018-05-04T03:06:21.063Z,9.08
2018-05-04T03:07:21.079Z,9.23
2018-05-04T03:08:21.108Z,9.16
2018-05-04T03:09:21.126Z,9.17
2018-05-04T03:10:21.144Z,9.19
2018-05-04T03:11:21.173Z,9.08
2018-05-04T03:12:21.184Z,9.12
2018-05-04T03:13:21.205Z,9.16
2018-05-04T03:14:21.229Z,9.04
2018-05-04T03:15:21.254Z,9.03
2018-05-04T03:16:21.270Z,9.12
2018-05-04T03:17:21.290Z,8.98
2018-05-04T03:18:21.313Z,9.10
2018-05-04T03:19:21.329Z,9.00
2018-05-04T03:20:21.355Z,9.00
2018-05-04T03:21:21.377Z,9.04
2018-05-04T03:22:21.394Z,9.06
2018-05-04T03:23:21.414Z,9.06
2018-05-04T03:24:21.436Z,9.00
2018-05-04T03:25:21.464Z,9.12
2018-05-04T03:26:21.480Z,9.00
2018-05-04T03:27:21.497Z,9.04
2018-05-04T03:28:21.528Z,9.08
2018-05-04T03:29:21.544Z,9.01
2018-05-04T03:30:21.564Z,8.89
2018-05-04T03:31:21.593Z,8.96
2018-05-04T03:32:21.603Z,8.93
2018-05-04T03:33:21.621Z,8.85
2018-05-04T03:34:21.655Z,8.91
2018-05-04T03:35:21.676Z,8.82
2018-05-04T03:36:21.683Z,8.97
2018-05-04T03:37:21.706Z,9.03
2018-05-04T03:38:21.734Z,9.08
2018-05-04T03:39:21.745Z,9.00
2018-05-04T03:40:21.768Z,8.96
2018-05-04T03:41:21.787Z,8.93
2018-05-04T03:42:21.812Z,8.83
2018-05-04T03:43:21.828Z,8.98
2018-05-04T03:44:21.847Z,8.94
2018-05-04T03:45:21.873Z,9.08
2018-05-04T03:46:21.895Z,8.98
2018-05-04T03:47:21.912Z,9.06
2018-05-04T03:48:21.932Z,9.06
2018-05-04T03:49:21.953Z,8.89
2018-05-04T03:50:21.977Z,8.89
2018-05-04T03:51:21.995Z,8.91
2018-05-04T03:52:22.019Z,8.98
2018-05-04T03:53:22.040Z,8.96
2018-05-04T03:54:22.060Z,9.00
2018-05-04T03:55:22.076Z,9.06
2018-05-04T03:56:22.097Z,9.00
2018-05-04T03:57:22.125Z,8.96
2018-05-04T03:58:22.149Z,9.01
2018-05-04T03:59:22.158Z,9.00
2018-05-04T04:00:22.181Z,9.04
2018-05-04T04:01:22.205Z,9.12
2018-05-04T04:02:22.243Z,9.10
2018-05-04T04:03:22.241Z,9.10
2018-05-04T04:04:22.267Z,8.98
2018-05-04T04:05:22.281Z,9.17
2018-05-04T04:06:22.306Z,9.17
2018-05-04T04:07:22.330Z,9.13
2018-05-04T04:08:22.351Z,9.20
2018-05-04T04:09:22.367Z,9.10
2018-05-04T04:10:22.390Z,9.06
2018-05-04T04:11:22.406Z,9.06
2018-05-04T04:12:22.432Z,9.01
2018-05-04T04:13:22.451Z,9.17
2018-05-04T04:14:22.470Z,9.15
2018-05-04T04:15:22.491Z,9.19
2018-05-04T04:16:22.517Z,9.13
2018-05-04T04:17:22.536Z,9.16
2018-05-04T04:18:22.555Z,9.12
2018-05-04T04:19:22.577Z,9.08
2018-05-04T04:20:22.597Z,9.10
2018-05-04T04:21:22.620Z,9.12
2018-05-04T04:22:22.636Z,9.15
2018-05-04T04:23:22.660Z,9.17
2018-05-04T04:24:22.679Z,9.27
2018-05-04T04:25:22.700Z,9.16
2018-05-04T04:26:22.723Z,9.24
2018-05-04T04:27:22.743Z,9.13
2018-05-04T04:28:22.763Z,9.13
2018-05-04T04:29:22.784Z,9.16
2018-05-04T04:30:22.810Z,9.23
2018-05-04T04:31:22.832Z,9.15
2018-05-04T04:32:22.846Z,9.04
2018-05-04T04:33:22.863Z,9.15
2018-05-04T04:34:22.889Z,9.16
2018-05-04T04:35:22.906Z,9.17
2018-05-04T04:36:22.930Z,9.17
2018-05-04T04:37:22.946Z,9.13
2018-05-04T04:38:22.969Z,9.19
2018-05-04T04:39:22.987Z,9.16
2018-05-04T04:40:23.010Z,9.23
2018-05-04T04:41:23.031Z,9.32
2018-05-04T04:42:23.051Z,9.30
2018-05-04T04:43:23.069Z,9.26
2018-05-04T04:44:23.099Z,9.24
2018-05-04T04:45:23.119Z,9.30
2018-05-04T04:46:23.136Z,9.30
2018-05-04T04:47:23.158Z,9.34
2018-05-04T04:48:23.179Z,9.38
2018-05-04T04:49:23.200Z,9.37
2018-05-04T04:50:23.218Z,9.32
2018-05-04T04:51:23.244Z,9.40
2018-05-04T04:52:23.259Z,9.44
2018-05-04T04:53:23.318Z,9.37
2018-05-04T04:54:23.300Z,9.45
2018-05-04T04:55:23.329Z,9.45
2018-05-04T04:56:23.345Z,9.49
2018-05-04T04:57:23.369Z,9.45
2018-05-04T04:58:23.387Z,9.44
2018-05-04T04:59:23.408Z,9.35
2018-05-04T05:00:23.427Z,9.44
2018-05-04T05:01:23.448Z,9.34
2018-05-04T05:02:23.468Z,9.49
2018-05-04T05:03:23.494Z,9.38
2018-05-04T05:04:23.518Z,9.38
2018-05-04T05:05:23.532Z,9.49
2018-05-04T05:06:23.554Z,9.42
2018-05-04T05:07:23.570Z,9.45
2018-05-04T05:08:23.595Z,9.40
2018-05-04T05:09:23.613Z,9.41
2018-05-04T05:10:23.633Z,9.38
2018-05-04T05:11:23.653Z,9.49
2018-05-04T05:12:23.673Z,9.48
2018-05-04T05:13:23.700Z,9.50
2018-05-04T05:14:23.717Z,9.59
2018-05-04T05:15:23.742Z,9.59
2018-05-04T05:16:23.783Z,9.56
2018-05-04T05:17:23.778Z,9.58
2018-05-04T05:18:23.808Z,9.52
2018-05-04T05:19:23.830Z,9.55
2018-05-04T05:20:23.854Z,9.70
2018-05-04T05:21:23.872Z,9.63
2018-05-04T05:22:23.885Z,9.75
2018-05-04T05:23:23.907Z,9.83
2018-05-04T05:24:23.927Z,9.86
2018-05-04T05:25:23.948Z,9.81
2018-05-04T05:26:23.968Z,9.88
2018-05-04T05:27:23.986Z,9.80
2018-05-04T05:28:24.013Z,9.83
2018-05-04T05:29:24.055Z,9.83
2018-05-04T05:30:24.052Z,9.78
2018-05-04T05:31:24.077Z,9.75
2018-05-04T05:32:24.104Z,9.78
2018-05-04T05:33:24.172Z,9.86
2018-05-04T05:34:24.141Z,9.88
2018-05-04T05:35:24.170Z,9.96
2018-05-04T05:36:24.182Z,9.95
2018-05-04T05:37:24.205Z,9.95
2018-05-04T05:38:24.229Z,9.98
2018-05-04T05:39:24.252Z,10.10
2018-05-04T05:40:24.264Z,10.01
2018-05-04T05:41:24.290Z,10.06
2018-05-04T05:42:24.378Z,10.02
2018-05-04T05:43:24.336Z,10.07
2018-05-04T05:44:24.354Z,10.14
2018-05-04T05:45:24.373Z,10.18
2018-05-04T05:46:24.401Z,10.28
2018-05-04T05:47:24.416Z,10.29
2018-05-04T05:48:24.440Z,10.26
2018-05-04T05:49:24.457Z,10.38
2018-05-04T05:50:24.481Z,10.29
2018-05-04T05:51:24.503Z,10.36
2018-05-04T05:52:24.540Z,10.38
2018-05-04T05:53:24.550Z,10.29
2018-05-04T05:54:24.569Z,10.32
2018-05-04T05:55:24.585Z,10.36
2018-05-04T05:56:24.607Z,10.47
2018-05-04T05:57:24.634Z,10.49
2018-05-04T05:58:24.653Z,10.47
2018-05-04T05:59:24.677Z,10.52
2018-05-04T06:00:24.693Z,10.62
2018-05-04T06:01:24.718Z,10.62
2018-05-04T06:02:24.742Z,10.54
2018-05-04T06:03:24.756Z,10.55
2018-05-04T06:04:24.785Z,10.62
2018-05-04T06:05:24.801Z,10.66
2018-05-04T06:06:24.827Z,10.66
2018-05-04T06:07:24.840Z,10.72
2018-05-04T06:08:24.870Z,10.69
2018-05-04T06:09:24.896Z,10.75
2018-05-04T06:10:24.914Z,10.78
2018-05-04T06:11:24.932Z,10.75
2018-05-04T06:12:24.952Z,10.88
2018-05-04T06:13:24.970Z,10.81
2018-05-04T06:14:24.995Z,10.86
2018-05-04T06:15:25.016Z,10.91
2018-05-04T06:16:25.040Z,10.93
2018-05-04T06:17:25.064Z,10.93
2018-05-04T06:18:25.085Z,10.95
2018-05-04T06:19:25.101Z,10.88
2018-05-04T06:20:25.124Z,10.90
2018-05-04T06:21:25.144Z,10.95
2018-05-04T06:22:25.174Z,10.93
2018-05-04T06:23:25.192Z,10.91
2018-05-04T06:24:25.227Z,10.95
2018-05-04T06:25:25.234Z,10.95
2018-05-04T06:26:25.254Z,10.91
2018-05-04T06:27:25.282Z,10.98
2018-05-04T06:28:25.300Z,11.03
2018-05-04T06:29:25.320Z,10.95
2018-05-04T06:30:25.344Z,11.01
2018-05-04T06:31:25.364Z,11.05
2018-05-04T06:32:25.390Z,11.03
2018-05-04T06:33:25.414Z,11.09
2018-05-04T06:34:25.431Z,11.16
2018-05-04T06:35:25.457Z,11.13
2018-05-04T06:36:25.477Z,11.16
2018-05-04T06:37:25.496Z,11.19
2018-05-04T06:38:25.518Z,11.19
2018-05-04T06:39:25.540Z,11.21
2018-05-04T06:40:25.567Z,11.33
2018-05-04T06:41:25.588Z,11.31
2018-05-04T06:42:25.608Z,11.35
2018-05-04T06:43:25.627Z,11.35
2018-05-04T06:44:25.658Z,11.33
2018-05-04T06:45:25.677Z,11.28
2018-05-04T06:46:25.699Z,11.42
2018-05-04T06:47:25.719Z,11.49
2018-05-04T06:48:25.740Z,11.46
2018-05-04T06:49:25.762Z,11.42
2018-05-04T06:50:25.783Z,11.44
2018-05-04T06:51:25.804Z,11.44
2018-05-04T06:52:25.832Z,11.46
2018-05-04T06:53:25.847Z,11.41
2018-05-04T06:54:25.881Z,11.56
2018-05-04T06:55:25.899Z,11.60
2018-05-04T06:56:25.919Z,11.56
2018-05-04T06:57:25.937Z,11.45
2018-05-04T06:58:25.967Z,11.42
2018-05-04T06:59:26.078Z,11.39
2018-05-04T07:00:26.003Z,11.54
2018-05-04T07:01:26.028Z,11.51
2018-05-04T07:02:26.053Z,11.53
2018-05-04T07:03:26.072Z,11.59
2018-05-04T07:04:26.097Z,11.54
2018-05-04T07:05:26.118Z,11.66
2018-05-04T07:06:26.135Z,11.69
2018-05-04T07:07:26.161Z,11.66
2018-05-04T07:08:26.185Z,11.69
2018-05-04T07:09:26.209Z,11.79
2018-05-04T07:10:26.236Z,11.78
2018-05-04T07:11:26.248Z,11.94
2018-05-04T07:12:26.279Z,11.90
2018-05-04T07:13:26.352Z,11.87
2018-05-04T07:14:26.321Z,11.87
2018-05-04T07:15:26.336Z,11.94
2018-05-04T07:16:26.363Z,11.85
2018-05-04T07:17:26.386Z,11.96
2018-05-04T07:18:26.411Z,12.01
2018-05-04T07:19:26.434Z,12.00
2018-05-04T07:20:26.451Z,12.05
2018-05-04T07:21:26.473Z,12.12
2018-05-04T07:22:26.496Z,12.18
2018-05-04T07:23:26.521Z,12.23
2018-05-04T07:24:26.540Z,12.29
2018-05-04T07:25:26.571Z,12.19
2018-05-04T07:26:26.594Z,12.22
2018-05-04T07:27:26.609Z,12.22
2018-05-04T07:28:26.632Z,12.26
2018-05-04T07:29:26.650Z,12.31
2018-05-04T07:30:26.678Z,12.33
2018-05-04T07:31:26.698Z,12.40
2018-05-04T07:32:26.817Z,12.49
2018-05-04T07:33:26.740Z,12.52
2018-05-04T07:34:26.769Z,12.58
2018-05-04T07:35:26.792Z,12.58
2018-05-04T07:36:26.813Z,12.67
2018-05-04T07:37:26.837Z,12.67
2018-05-04T07:38:26.860Z,12.74
2018-05-04T07:39:26.883Z,12.71
2018-05-04T07:40:26.901Z,12.74
2018-05-04T07:41:26.930Z,12.81
2018-05-04T07:42:26.946Z,12.79
2018-05-04T07:43:26.984Z,12.85
2018-05-04T07:44:27.006Z,12.94
2018-05-04T07:45:27.021Z,12.98
2018-05-04T07:46:27.046Z,12.98
2018-05-04T07:47:27.066Z,13.06
2018-05-04T07:48:27.093Z,13.10
2018-05-04T07:49:27.121Z,13.16
2018-05-04T07:50:27.136Z,13.13
2018-05-04T07:51:27.160Z,13.12
2018-05-04T07:52:27.180Z,13.17
2018-05-04T07:53:27.204Z,13.25
2018-05-04T07:54:27.231Z,13.32
2018-05-04T07:55:27.249Z,13.41
2018-05-04T07:56:27.277Z,13.57
2018-05-04T07:57:27.299Z,13.63
2018-05-04T07:58:27.322Z,13.69
2018-05-04T07:59:27.338Z,13.68
2018-05-04T08:00:27.370Z,13.80
2018-05-04T08:01:27.394Z,13.73
2018-05-04T08:02:27.417Z,13.94
2018-05-04T08:03:27.441Z,13.90
2018-05-04T08:04:27.463Z,13.91
2018-05-04T08:05:27.491Z,14.12
2018-05-04T08:06:27.510Z,13.99
2018-05-04T08:07:27.535Z,14.17
2018-05-04T08:08:27.617Z,14.29
2018-05-04T08:09:27.580Z,14.36
2018-05-04T08:10:27.604Z,14.34
2018-05-04T08:11:27.629Z,14.48
2018-05-04T08:12:27.654Z,14.53
2018-05-04T08:13:27.679Z,14.82
2018-05-04T08:14:27.709Z,14.82
2018-05-04T08:15:27.725Z,14.95
2018-05-04T08:16:27.749Z,14.94
2018-05-04T08:17:27.775Z,14.97
2018-05-04T08:18:27.800Z,15.11
2018-05-04T08:19:27.824Z,15.05
2018-05-04T08:20:27.854Z,14.98
2018-05-04T08:21:27.876Z,14.94
2018-05-04T08:22:27.899Z,15.04
2018-05-04T08:23:27.921Z,14.91
2018-05-04T08:24:27.947Z,15.00
2018-05-04T08:25:27.971Z,14.74
2018-05-04T08:26:27.999Z,14.67
2018-05-04T08:27:28.046Z,14.79
2018-05-04T08:28:28.052Z,14.80
2018-05-04T08:29:28.074Z,14.61
2018-05-04T08:30:28.100Z,14.66
2018-05-04T08:31:28.126Z,14.63
2018-05-04T08:32:28.152Z,14.82
2018-05-04T08:33:28.167Z,14.78
2018-05-04T08:34:28.199Z,14.83
2018-05-04T08:35:28.269Z,14.86
2018-05-04T08:36:28.249Z,14.82
2018-05-04T08:37:28.277Z,14.82
2018-05-04T08:38:28.299Z,14.80
2018-05-04T08:39:28.323Z,14.75
2018-05-04T08:40:28.347Z,14.79
2018-05-04T08:41:28.372Z,14.87
2018-05-04T08:42:28.399Z,14.95
2018-05-04T08:43:28.427Z,14.98
2018-05-04T08:44:28.447Z,14.97
2018-05-04T08:45:28.476Z,14.97
2018-05-04T08:46:28.504Z,15.00
2018-05-04T08:47:28.526Z,15.04
2018-05-04T08:48:28.547Z,14.93
2018-05-04T08:49:28.575Z,14.75
2018-05-04T08:50:28.594Z,14.79
2018-05-04T08:51:28.623Z,14.60
2018-05-04T08:52:28.649Z,14.44
2018-05-04T08:53:28.671Z,14.35
2018-05-04T08:54:28.818Z,14.24
2018-05-04T08:55:28.728Z,14.11
2018-05-04T08:56:28.749Z,14.16
2018-05-04T08:57:28.812Z,14.11
2018-05-04T08:58:28.801Z,14.20
2018-05-04T08:59:28.821Z,14.11
2018-05-04T09:00:28.851Z,14.11
2018-05-04T09:01:28.879Z,14.29
2018-05-04T09:02:28.895Z,14.30
2018-05-04T09:03:28.919Z,14.27
2018-05-04T09:04:28.958Z,14.27
2018-05-04T09:05:29.181Z,14.17
2018-05-04T09:06:28.995Z,14.11
2018-05-04T09:07:29.027Z,14.17
2018-05-04T09:08:29.046Z,14.38
2018-05-04T09:09:29.066Z,14.42
2018-05-04T09:10:29.091Z,14.38
2018-05-04T09:11:29.116Z,14.34
2018-05-04T09:12:29.143Z,14.34
2018-05-04T09:13:29.165Z,14.31
2018-05-04T09:14:29.192Z,14.26
2018-05-04T09:15:29.210Z,14.24
2018-05-04T09:16:29.245Z,14.23
2018-05-04T09:17:29.265Z,14.16
2018-05-04T09:18:29.292Z,14.12
2018-05-04T09:19:29.313Z,14.13
2018-05-04T09:20:29.339Z,14.11
2018-05-04T09:21:29.360Z,14.08
2018-05-04T09:22:29.386Z,14.11
2018-05-04T09:23:29.419Z,14.05
2018-05-04T09:24:29.439Z,14.02
2018-05-04T09:25:29.461Z,14.04
2018-05-04T09:26:29.491Z,13.93
2018-05-04T09:27:29.510Z,14.05
2018-05-04T09:28:29.537Z,13.99
2018-05-04T09:29:29.557Z,13.88
2018-05-04T09:30:29.589Z,13.91
2018-05-04T09:31:29.605Z,13.93
2018-05-04T09:32:29.635Z,13.94
2018-05-04T09:33:29.653Z,13.84
2018-05-04T09:34:29.682Z,13.91
2018-05-04T09:35:29.701Z,13.91
2018-05-04T09:36:29.731Z,13.93
2018-05-04T09:37:29.752Z,13.84
2018-05-04T09:38:29.775Z,14.02
2018-05-04T09:39:29.798Z,14.04
2018-05-04T09:40:29.824Z,14.02
2018-05-04T09:41:29.849Z,14.19
2018-05-04T09:42:29.870Z,14.19
2018-05-04T09:43:29.918Z,14.26
2018-05-04T09:44:29.923Z,14.27
2018-05-04T09:45:29.946Z,14.36
2018-05-04T09:46:29.973Z,14.34
2018-05-04T09:47:30.036Z,14.30
2018-05-04T09:48:30.023Z,14.24
2018-05-04T09:49:30.045Z,14.31
2018-05-04T09:50:30.068Z,14.38
2018-05-04T09:51:30.092Z,14.36
2018-05-04T09:52:30.114Z,14.41
2018-05-04T09:53:30.139Z,14.41
2018-05-04T09:54:30.164Z,14.46
2018-05-04T09:55:30.185Z,14.41
2018-05-04T09:56:30.213Z,14.46
2018-05-04T09:57:30.234Z,14.42
2018-05-04T09:58:30.260Z,14.44
2018-05-04T09:59:30.288Z,14.52
2018-05-04T10:00:30.311Z,14.46
2018-05-04T10:01:30.334Z,14.42
2018-05-04T10:02:30.366Z,14.56
2018-05-04T10:03:30.404Z,14.61
2018-05-04T10:04:30.409Z,14.64
2018-05-04T10:05:30.435Z,14.69
2018-05-04T10:06:30.464Z,14.75
2018-05-04T10:07:30.481Z,14.75
2018-05-04T10:08:30.503Z,14.79
2018-05-04T10:09:30.538Z,14.78
2018-05-04T10:10:30.556Z,14.80
2018-05-04T10:11:30.578Z,14.79
2018-05-04T10:12:30.600Z,14.85
2018-05-04T10:13:30.629Z,14.93
2018-05-04T10:14:30.651Z,14.95
2018-05-04T10:15:30.672Z,14.95
2018-05-04T10:16:30.699Z,14.97
2018-05-04T10:17:30.719Z,15.09
2018-05-04T10:18:30.744Z,14.97
2018-05-04T10:19:30.818Z,14.98
2018-05-04T10:20:30.795Z,14.93
2018-05-04T10:21:30.818Z,14.91
2018-05-04T10:22:30.844Z,15.09
2018-05-04T10:23:30.872Z,15.00
2018-05-04T10:24:30.892Z,15.07
2018-05-04T10:25:30.919Z,15.09
2018-05-04T10:26:30.941Z,15.23
2018-05-04T10:27:30.973Z,15.11
2018-05-04T10:28:30.992Z,15.15
2018-05-04T10:29:31.017Z,15.19
2018-05-04T10:30:31.042Z,15.13
2018-05-04T10:31:31.165Z,15.18
2018-05-04T10:32:31.092Z,15.16
2018-05-04T10:33:31.114Z,15.11
2018-05-04T10:34:31.144Z,15.22
2018-05-04T10:35:31.178Z,15.27
2018-05-04T10:36:31.182Z,15.30
2018-05-04T10:37:31.208Z,15.48
2018-05-04T10:38:31.346Z,15.53
2018-05-04T10:39:31.264Z,15.67
2018-05-04T10:40:31.281Z,15.67
2018-05-04T10:41:31.308Z,15.71
2018-05-04T10:42:31.337Z,15.70
2018-05-04T10:43:31.355Z,15.70
2018-05-04T10:44:31.382Z,15.91
2018-05-04T10:45:31.406Z,15.92
2018-05-04T10:46:31.434Z,16.08
2018-05-04T10:47:31.451Z,16.30
2018-05-04T10:48:31.478Z,16.51
2018-05-04T10:49:31.503Z,16.48
2018-05-04T10:50:31.527Z,16.62
2018-05-04T10:51:31.552Z,16.75
2018-05-04T10:52:31.577Z,16.90
2018-05-04T10:53:31.603Z,17.12
2018-05-04T10:54:31.631Z,17.14
2018-05-04T10:55:31.662Z,17.32
2018-05-04T10:56:31.681Z,17.49
2018-05-04T10:57:31.709Z,17.62
2018-05-04T10:58:31.731Z,18.01
2018-05-04T10:59:31.765Z,18.20
2018-05-04T11:00:31.789Z,18.38
2018-05-04T11:01:31.813Z,18.59
2018-05-04T11:02:31.849Z,19.05
2018-05-04T11:03:31.877Z,19.64
2018-05-04T11:04:31.897Z,20.50
2018-05-04T11:05:31.925Z,21.48
2018-05-04T11:06:31.983Z,22.64
2018-05-04T11:07:31.985Z,23.54
2018-05-04T11:08:32.008Z,24.49
2018-05-04T11:09:32.041Z,25.09
2018-05-04T11:10:32.072Z,26.12
2018-05-04T11:11:32.097Z,26.93
2018-05-04T11:12:32.132Z,27.48
2018-05-04T11:13:32.161Z,27.72
2018-05-04T11:14:32.189Z,27.95
2018-05-04T11:15:32.221Z,28.02
2018-05-04T11:16:32.257Z,27.80
2018-05-04T11:17:32.287Z,28.36
2018-05-04T11:18:32.317Z,28.73
2018-05-04T11:19:32.448Z,29.47
2018-05-04T11:20:32.383Z,29.81
2018-05-04T11:21:32.420Z,29.99
2018-05-04T11:22:32.451Z,29.95
2018-05-04T11:23:32.482Z,29.66
2018-05-04T11:24:32.516Z,29.94
2018-05-04T11:25:32.547Z,30.25
2018-05-04T11:26:32.590Z,30.26
2018-05-04T11:27:32.619Z,29.67
2018-05-04T11:28:32.644Z,29.37
2018-05-04T11:29:32.690Z,29.42
2018-05-04T11:30:32.719Z,29.39
2018-05-04T11:31:32.750Z,29.60
2018-05-04T11:32:32.781Z,28.73
2018-05-04T11:33:32.824Z,29.14
2018-05-04T11:34:32.859Z,29.21
2018-05-04T11:35:32.885Z,29.62
2018-05-04T11:36:32.929Z,30.18
2018-05-04T11:37:32.967Z,30.61
2018-05-04T11:38:32.992Z,30.81
2018-05-04T11:39:33.033Z,30.82
2018-05-04T11:40:33.060Z,31.37
2018-05-04T11:41:33.102Z,31.68
2018-05-04T11:42:33.135Z,32.05
2018-05-04T11:43:33.169Z,32.47
2018-05-04T11:44:33.204Z,32.66
2018-05-04T11:45:33.239Z,32.80
2018-05-04T11:46:33.278Z,32.80
2018-05-04T11:47:33.316Z,32.80
2018-05-04T11:48:33.347Z,32.93
2018-05-04T11:49:33.434Z,32.66
2018-05-04T11:50:33.418Z,33.00
2018-05-04T11:51:33.458Z,33.02
2018-05-04T11:52:33.502Z,33.05
2018-05-04T11:53:33.535Z,31.78
2018-05-04T11:54:33.574Z,31.82
2018-05-04T11:55:33.606Z,32.35
2018-05-04T11:56:33.643Z,32.34
2018-05-04T11:57:33.678Z,32.65
2018-05-04T11:58:33.723Z,33.14
2018-05-04T11:59:33.754Z,33.70
2018-05-04T12:00:33.790Z,33.90
2018-05-04T12:01:33.836Z,34.14
2018-05-04T12:02:33.874Z,33.55
2018-05-04T12:03:33.903Z,32.71
2018-05-04T12:04:33.948Z,32.71
2018-05-04T12:05:33.982Z,31.92
2018-05-04T12:06:34.021Z,31.91
2018-05-04T12:07:34.056Z,31.67
2018-05-04T12:08:34.095Z,31.69
2018-05-04T12:09:34.135Z,32.09
2018-05-04T12:10:34.173Z,32.53
2018-05-04T12:11:34.208Z,32.29
2018-05-04T12:12:34.247Z,32.61
2018-05-04T12:13:34.293Z,32.54
2018-05-04T12:14:34.326Z,32.88
2018-05-04T12:15:34.369Z,33.55
2018-05-04T12:16:34.454Z,33.99
2018-05-04T12:17:34.438Z,34.36
2018-05-04T12:18:34.490Z,34.69
2018-05-04T12:19:34.521Z,35.03
2018-05-04T12:20:34.556Z,35.17
2018-05-04T12:21:34.591Z,34.95
2018-05-04T12:22:34.632Z,34.73
2018-05-04T12:23:34.668Z,34.61
2018-05-04T12:24:34.708Z,35.40
2018-05-04T12:25:34.747Z,35.91
2018-05-04T12:26:34.792Z,36.03
2018-05-04T12:27:34.826Z,35.69
2018-05-04T12:28:34.869Z,35.93
2018-05-04T12:29:34.902Z,35.69
2018-05-04T12:30:34.956Z,35.58
2018-05-04T12:31:34.985Z,35.47
2018-05-04T12:32:35.022Z,35.25
2018-05-04T12:33:35.062Z,34.84
2018-05-04T12:34:35.110Z,34.95
2018-05-04T12:35:35.143Z,35.24
2018-05-04T12:36:35.179Z,35.49
2018-05-04T12:37:35.227Z,35.81
2018-05-04T12:38:35.280Z,35.55
2018-05-04T12:39:35.304Z,34.91
2018-05-04T12:40:35.343Z,34.75
2018-05-04T12:41:35.380Z,35.06
2018-05-04T12:42:35.425Z,33.74
2018-05-04T12:43:35.456Z,33.52
2018-05-04T12:44:35.501Z,33.72
2018-05-04T12:45:35.552Z,34.12
2018-05-04T12:46:35.584Z,34.56
2018-05-04T12:47:35.626Z,34.86
2018-05-04T12:48:35.657Z,35.15
2018-05-04T12:49:35.699Z,34.52
2018-05-04T12:50:35.745Z,34.78
2018-05-04T12:51:35.786Z,35.21
2018-05-04T12:52:35.820Z,35.32
2018-05-04T12:53:35.948Z,35.02
2018-05-04T12:54:35.896Z,34.81
2018-05-04T12:55:35.945Z,34.84
2018-05-04T12:56:35.976Z,34.69
2018-05-04T12:57:36.025Z,34.72
2018-05-04T12:58:36.061Z,34.73
2018-05-04T12:59:36.101Z,34.69
2018-05-04T13:00:36.142Z,34.73
2018-05-04T13:01:36.184Z,34.67
2018-05-04T13:02:36.225Z,35.02